Time;durP1;ratioP1;P1;durP2;ratioP2;P2;SDS_P1;SDS_P2;PMS_P1;PMS_P2;Temp;Humidity;BMP_temperature;BMP_pressure;BME280_temperature;BME280_humidity;BME280_pressure;Samples;Min_cycle;Max_cycle;Signal;HPM_P1;HPM_P2
2023/06/10 00:00:45;;;;;;;6.33;5.73;;;;;;;18.10;84.09;97705.72;5053796;28;20201;-73
2023/06/10 00:03:12;;;;;;;5.83;5.33;;;;;;;18.13;81.86;97700.59;5053394;28;20770;-73
2023/06/10 00:05:38;;;;;;;6.17;5.57;;;;;;;18.12;83.72;97703.56;5053312;28;20569;-73
2023/06/10 00:08:07;;;;;;;5.93;5.43;;;;;;;18.16;81.53;97705.44;5053726;28;20283;-73
2023/06/10 00:10:38;;;;;;;6.00;5.50;;;;;;;18.15;82.30;97701.13;5053379;28;20730;-73
2023/06/10 00:13:08;;;;;;;5.37;4.87;;;;;;;18.14;83.18;97696.03;5053688;28;20189;-73
2023/06/10 00:15:35;;;;;;;5.77;5.27;;;;;;;18.13;81.95;97700.59;5053400;28;20228;-73
2023/06/10 00:18:02;;;;;;;5.67;5.10;;;;;;;18.12;82.71;97701.69;5053605;28;20263;-73
2023/06/10 00:20:30;;;;;;;6.37;5.13;;;;;;;18.11;85.03;97701.97;5053493;28;20262;-73
2023/06/10 00:22:58;;;;;;;5.13;4.73;;;;;;;18.14;82.92;97696.81;5053063;28;20232;-73
2023/06/10 00:25:25;;;;;;;6.83;5.03;;;;;;;18.14;81.32;97704.88;5053084;28;20296;-73
2023/06/10 00:27:52;;;;;;;5.17;4.67;;;;;;;18.11;82.41;97699.25;5054187;28;20297;-73
2023/06/10 00:30:18;;;;;;;5.30;4.87;;;;;;;18.12;81.52;97701.69;5053480;28;20205;-73
2023/06/10 00:32:44;;;;;;;6.17;4.93;;;;;;;18.14;81.34;97701.41;5053378;28;20208;-73
2023/06/10 00:35:11;;;;;;;4.93;4.43;;;;;;;18.13;80.14;97695.22;5053440;28;20201;-73
2023/06/10 00:37:38;;;;;;;5.20;4.80;;;;;;;18.06;82.81;97700.06;5053392;28;20220;-73
2023/06/10 00:40:05;;;;;;;5.07;4.57;;;;;;;18.10;83.13;97701.13;5053303;28;20205;-73
2023/06/10 00:42:31;;;;;;;4.97;4.57;;;;;;;18.08;83.91;97695.25;5053189;28;20229;-73
2023/06/10 00:44:58;;;;;;;5.23;4.80;;;;;;;18.04;81.91;97696.06;5053111;28;20203;-73
2023/06/10 00:47:26;;;;;;;7.57;5.37;;;;;;;18.01;83.16;97702.00;5053199;28;20221;-73
2023/06/10 00:49:52;;;;;;;5.47;5.07;;;;;;;17.90;82.59;97695.03;5053275;28;20287;-73
2023/06/10 00:52:19;;;;;;;5.47;4.97;;;;;;;17.83;84.27;97700.69;5053114;28;20201;-73
2023/06/10 00:54:46;;;;;;;6.93;4.90;;;;;;;17.84;84.33;97699.63;5052651;28;20703;-73
2023/06/10 00:57:13;;;;;;;7.63;5.30;;;;;;;17.79;84.57;97698.84;5054643;28;20229;-73
2023/06/10 00:59:42;;;;;;;6.60;5.90;;;;;;;17.70;86.82;97695.91;5057136;28;20209;-73
2023/06/10 01:02:09;;;;;;;6.40;5.90;;;;;;;17.75;90.20;97701.28;5057013;28;20243;-73
2023/06/10 01:04:36;;;;;;;6.53;5.77;;;;;;;17.72;89.04;97698.31;5057054;28;20228;-73
2023/06/10 01:07:18;;;;;;;6.67;5.47;;;;;;;17.67;90.77;97699.13;5056539;28;20225;-73
2023/06/10 01:10:09;;;;;;;6.03;5.53;;;;;;;17.67;88.71;97695.63;5056718;28;20201;-73
2023/06/10 01:12:42;;;;;;;6.27;5.70;;;;;;;17.59;90.53;97696.19;5056661;28;20213;-73
2023/06/10 01:15:09;;;;;;;6.20;5.60;;;;;;;17.60;89.39;97703.19;5056937;28;20206;-73
2023/06/10 01:17:53;;;;;;;5.30;4.87;;;;;;;17.70;85.64;97687.84;5056762;28;20233;-73
2023/06/10 01:20:20;;;;;;;4.93;4.53;;;;;;;17.80;82.94;97690.50;5056496;28;20197;-73
2023/06/10 01:22:47;;;;;;;6.37;4.60;;;;;;;17.83;83.98;97691.84;5056399;28;20225;-73
2023/06/10 01:25:14;;;;;;;5.03;4.63;;;;;;;17.86;84.66;97693.97;5056671;28;20251;-73
2023/06/10 01:27:41;;;;;;;4.67;4.17;;;;;;;17.86;85.29;97681.34;5056628;28;20216;-73
2023/06/10 01:30:19;;;;;;;4.70;4.30;;;;;;;17.89;81.90;97680.78;5056627;28;20205;-73
2023/06/10 01:32:49;;;;;;;5.80;4.57;;;;;;;17.90;83.27;97690.47;5056299;28;20692;-73
2023/06/10 01:35:16;;;;;;;6.90;4.03;;;;;;;17.86;83.22;97688.59;5056436;28;20255;-73
2023/06/10 01:37:46;;;;;;;4.70;4.30;;;;;;;17.85;81.46;97698.56;5056402;28;20206;-73
2023/06/10 01:40:13;;;;;;;4.90;4.40;;;;;;;17.80;81.25;97695.88;5056454;28;20212;-73
2023/06/10 01:42:40;;;;;;;5.00;4.60;;;;;;;17.81;79.29;97692.09;5056016;28;20225;-73
2023/06/10 01:45:07;;;;;;;5.30;4.73;;;;;;;17.77;81.00;97698.28;5056357;28;20207;-73
2023/06/10 01:47:33;;;;;;;4.67;4.17;;;;;;;17.71;84.73;97691.31;5056211;28;20225;-73
2023/06/10 01:49:59;;;;;;;4.57;4.17;;;;;;;17.71;82.65;97691.31;5056253;28;20221;-73
2023/06/10 01:52:26;;;;;;;4.43;4.13;;;;;;;17.66;82.76;97699.41;5056187;28;20236;-73
2023/06/10 01:54:52;;;;;;;4.93;4.50;;;;;;;17.71;86.01;97697.53;5056156;28;20209;-73
2023/06/10 01:57:19;;;;;;;4.73;4.33;;;;;;;17.66;83.88;97702.91;5055958;28;20229;-73
2023/06/10 01:59:46;;;;;;;5.90;5.30;;;;;;;17.66;86.86;97705.59;5055532;28;20213;-73
2023/06/10 02:02:12;;;;;;;6.50;4.97;;;;;;;17.51;86.95;97696.75;5055859;28;20225;-73
2023/06/10 02:04:38;;;;;;;6.57;5.97;;;;;;;17.33;89.37;97705.34;5056005;28;20208;-73
2023/06/10 02:07:05;;;;;;;5.80;5.30;;;;;;;17.25;89.83;97708.56;5055702;28;20299;-73
2023/06/10 02:09:34;;;;;;;5.70;5.20;;;;;;;17.19;89.99;97715.81;5055321;28;20205;-73
2023/06/10 02:12:01;;;;;;;6.43;5.80;;;;;;;17.25;89.65;97708.56;5055486;28;20632;-73
2023/06/10 02:14:27;;;;;;;6.57;6.07;;;;;;;17.28;89.59;97710.72;5055802;28;20234;-73
2023/06/10 02:16:56;;;;;;;6.43;5.93;;;;;;;17.17;89.35;97709.91;5055634;28;20225;-73
2023/06/10 02:19:23;;;;;;;6.50;5.93;;;;;;;17.04;89.88;97709.63;5055657;28;20201;-73
2023/06/10 02:21:49;;;;;;;6.33;5.63;;;;;;;17.08;90.95;97713.38;5055579;28;20205;-73
2023/06/10 02:24:16;;;;;;;6.20;5.70;;;;;;;16.98;93.00;97713.38;5055260;28;20216;-73
2023/06/10 02:26:42;;;;;;;6.27;5.63;;;;;;;16.96;94.13;97713.66;5055486;28;20225;-73
2023/06/10 02:29:08;;;;;;;6.57;5.93;;;;;;;16.85;95.97;97711.22;5055463;28;20207;-73
2023/06/10 02:31:36;;;;;;;6.50;6.00;;;;;;;16.73;97.38;97714.16;5055390;28;20208;-73
2023/06/10 02:34:03;;;;;;;7.10;5.67;;;;;;;16.70;98.07;97719.28;5055391;28;20255;-73
2023/06/10 02:36:30;;;;;;;6.43;5.83;;;;;;;16.61;98.66;97724.31;5054970;28;20704;-73
2023/06/10 02:38:56;;;;;;;6.83;6.23;;;;;;;16.59;98.77;97717.63;5055296;28;20216;-73
2023/06/10 02:41:24;;;;;;;7.37;5.93;;;;;;;16.61;98.83;97721.66;5055237;28;20201;-73
2023/06/10 02:43:51;;;;;;;7.03;6.43;;;;;;;16.72;98.93;97728.66;5055110;28;20225;-73
2023/06/10 02:46:17;;;;;;;7.47;6.27;;;;;;;16.69;96.25;97731.88;5055111;28;20221;-73
2023/06/10 02:48:44;;;;;;;7.13;6.47;;;;;;;16.62;97.55;97731.34;5055147;28;20211;-73
2023/06/10 02:51:11;;;;;;;6.80;6.20;;;;;;;16.48;99.06;97729.41;5055072;28;20205;-73
2023/06/10 02:53:38;;;;;;;6.17;5.67;;;;;;;16.49;98.49;97726.47;5054899;28;20197;-73
2023/06/10 02:56:04;;;;;;;6.10;5.60;;;;;;;16.46;98.53;97735.03;5054884;28;20221;-73
2023/06/10 02:58:31;;;;;;;7.17;6.57;;;;;;;16.41;100.00;97736.88;5054916;28;20217;-73
2023/06/10 03:00:58;;;;;;;7.90;5.93;;;;;;;16.40;100.00;97729.91;5054920;28;20205;-73
2023/06/10 03:03:25;;;;;;;7.30;6.53;;;;;;;16.42;100.00;97725.88;5054799;28;20267;-73
2023/06/10 03:05:52;;;;;;;6.90;5.77;;;;;;;16.37;99.97;97728.53;5054739;28;20233;-73
2023/06/10 03:08:18;;;;;;;6.43;5.83;;;;;;;16.21;100.00;97731.41;5054759;28;20209;-73
2023/06/10 03:10:44;;;;;;;6.43;5.97;;;;;;;16.14;100.00;97730.84;5054276;28;20672;-73
2023/06/10 03:13:11;;;;;;;7.30;6.03;;;;;;;16.19;100.00;97737.03;5054352;28;20679;-73
2023/06/10 03:15:37;;;;;;;7.00;6.30;;;;;;;16.18;100.00;97734.63;5054509;28;20221;-73
2023/06/10 03:18:04;;;;;;;6.50;6.00;;;;;;;16.23;100.00;97734.63;5054258;28;20754;-73
2023/06/10 03:20:30;;;;;;;7.03;6.43;;;;;;;16.22;100.00;97735.72;5053437;28;20213;-73
2023/06/10 03:22:56;;;;;;;6.60;6.00;;;;;;;16.32;99.83;97736.56;5054141;28;20236;-73
2023/06/10 03:25:22;;;;;;;6.37;5.87;;;;;;;16.33;100.00;97748.13;5054293;28;20208;-73
2023/06/10 03:27:49;;;;;;;7.33;6.10;;;;;;;16.33;100.00;97748.91;5054007;28;20209;-73
2023/06/10 03:30:15;;;;;;;7.23;6.03;;;;;;;16.30;100.00;97754.00;5054292;28;20210;-73
2023/06/10 03:32:43;;;;;;;6.50;6.00;;;;;;;16.33;100.00;97756.94;5054268;28;20197;-73
2023/06/10 03:35:09;;;;;;;6.00;5.50;;;;;;;16.28;100.00;97756.94;5054094;28;20205;-73
2023/06/10 03:37:36;;;;;;;6.07;5.57;;;;;;;16.18;100.00;97759.56;5053839;28;20229;-73
2023/06/10 03:40:03;;;;;;;7.10;6.40;;;;;;;16.10;100.00;97754.72;5054172;28;20205;-73
2023/06/10 03:42:29;;;;;;;7.17;6.53;;;;;;;16.22;100.00;97755.31;5054003;28;20321;-73
2023/06/10 03:44:56;;;;;;;6.60;6.10;;;;;;;16.22;100.00;97758.00;5053973;28;20207;-73
2023/06/10 03:47:22;;;;;;;6.60;5.90;;;;;;;16.22;100.00;97758.00;5053778;28;20232;-73
2023/06/10 03:49:49;;;;;;;6.60;6.00;;;;;;;16.16;100.00;97764.41;5053903;28;20216;-73
2023/06/10 03:52:15;;;;;;;6.67;6.00;;;;;;;16.13;100.00;97764.91;5053883;28;20212;-76
2023/06/10 03:54:41;;;;;;;8.07;6.07;;;;;;;16.12;100.00;97774.03;5053622;28;20216;-73
2023/06/10 03:57:08;;;;;;;5.87;5.37;;;;;;;16.15;100.00;97772.72;5053533;28;20229;-73
2023/06/10 03:59:34;;;;;;;6.77;6.07;;;;;;;16.18;100.00;97770.31;5053572;28;20205;-73
2023/06/10 04:02:01;;;;;;;7.00;6.40;;;;;;;16.11;100.00;97780.44;5053765;28;20205;-73
2023/06/10 04:04:28;;;;;;;6.80;6.20;;;;;;;16.10;100.00;97776.16;5053740;28;20208;-73
2023/06/10 04:06:54;;;;;;;6.53;6.00;;;;;;;16.04;100.00;97779.06;5053592;28;20232;-73
2023/06/10 04:09:20;;;;;;;8.03;6.50;;;;;;;16.08;100.00;97772.94;5053600;28;20205;-73
2023/06/10 04:11:48;;;;;;;6.83;6.13;;;;;;;16.08;100.00;97774.81;5053557;28;20228;-73
2023/06/10 04:14:14;;;;;;;6.67;6.07;;;;;;;16.15;100.00;97778.06;5053565;28;20572;-73
2023/06/10 04:16:42;;;;;;;6.43;5.67;;;;;;;16.09;100.00;97779.09;5053213;28;20221;-73
2023/06/10 04:19:09;;;;;;;6.63;6.03;;;;;;;16.18;100.00;97772.16;5053253;28;20664;-73
2023/06/10 04:21:35;;;;;;;6.40;5.77;;;;;;;16.26;100.00;97763.63;5053251;28;20212;-73
2023/06/10 04:24:02;;;;;;;6.10;5.60;;;;;;;16.25;100.00;97770.88;5052960;28;20247;-73
2023/06/10 04:26:29;;;;;;;6.47;5.90;;;;;;;16.30;100.00;97775.44;5053141;28;20630;-73
2023/06/10 04:28:55;;;;;;;6.47;5.83;;;;;;;16.26;100.00;97775.19;5053442;28;20207;-73
2023/06/10 04:31:21;;;;;;;6.07;5.57;;;;;;;16.26;100.00;97769.00;5056448;28;20209;-73
2023/06/10 04:33:48;;;;;;;6.13;5.60;;;;;;;16.27;100.00;97771.41;5059990;28;20201;-73
2023/06/10 04:36:14;;;;;;;6.57;5.97;;;;;;;16.37;100.00;97782.19;5059801;28;20229;-73
2023/06/10 04:38:41;;;;;;;7.40;6.07;;;;;;;16.46;100.00;97779.84;5059976;28;20232;-73
2023/06/10 04:41:07;;;;;;;6.63;5.80;;;;;;;16.49;100.00;97784.69;5059938;28;20205;-73
2023/06/10 04:43:34;;;;;;;6.10;5.60;;;;;;;16.55;100.00;97789.03;5059880;28;20221;-74
2023/06/10 04:46:00;;;;;;;5.80;5.30;;;;;;;16.64;100.00;97790.13;5059909;28;20221;-74
2023/06/10 04:48:27;;;;;;;5.97;5.47;;;;;;;16.74;100.00;97792.84;5059956;28;20208;-74
2023/06/10 04:50:53;;;;;;;6.50;5.90;;;;;;;16.83;100.00;97789.34;5059870;28;20322;-73
2023/06/10 04:53:20;;;;;;;7.07;6.40;;;;;;;16.89;100.00;97787.50;5059888;28;20216;-73
2023/06/10 04:55:48;;;;;;;7.07;5.90;;;;;;;16.91;100.00;97796.91;5059757;28;20220;-73
2023/06/10 04:58:14;;;;;;;5.50;5.00;;;;;;;16.95;100.00;97789.09;5059798;28;20209;-73
2023/06/10 05:00:40;;;;;;;7.53;5.67;;;;;;;17.03;100.00;97791.28;5059515;28;20279;-73
2023/06/10 05:03:07;;;;;;;5.60;5.20;;;;;;;17.20;100.00;97792.63;5058919;28;20714;-73
2023/06/10 05:05:33;;;;;;;5.77;5.27;;;;;;;17.45;100.00;97795.38;5059378;28;20229;-73
2023/06/10 05:07:59;;;;;;;5.47;4.90;;;;;;;17.79;100.00;97787.56;5059279;28;20667;-73
2023/06/10 05:10:26;;;;;;;6.67;5.17;;;;;;;18.20;99.47;97791.78;5059189;28;20668;-73
2023/06/10 05:12:52;;;;;;;5.33;4.73;;;;;;;18.67;93.34;97792.16;5059267;28;20694;-73
2023/06/10 05:15:18;;;;;;;4.80;4.40;;;;;;;19.06;88.88;97795.75;5059602;28;20208;-73
2023/06/10 05:17:45;;;;;;;4.73;4.33;;;;;;;19.42;86.84;97786.34;5059293;28;20691;-73
2023/06/10 05:20:13;;;;;;;4.37;4.07;;;;;;;20.50;76.49;97798.28;5059612;28;20205;-73
2023/06/10 05:22:39;;;;;;;4.50;4.10;;;;;;;20.72;77.39;97792.31;5059286;28;20228;-73
2023/06/10 05:25:06;;;;;;;4.50;3.77;;;;;;;20.80;71.26;97794.38;5059668;28;20189;-74
2023/06/10 05:27:33;;;;;;;4.50;4.03;;;;;;;20.82;71.64;97792.19;5059571;28;20221;-74
2023/06/10 05:29:59;;;;;;;4.40;3.90;;;;;;;21.09;69.42;97808.59;5059487;28;20201;-74
2023/06/10 05:32:25;;;;;;;4.60;4.20;;;;;;;20.53;72.48;97808.47;5059507;28;20212;-74
2023/06/10 05:34:52;;;;;;;4.60;4.20;;;;;;;20.25;73.44;97809.34;5059565;28;20205;-74
2023/06/10 05:37:18;;;;;;;5.70;4.83;;;;;;;20.03;76.43;97813.59;5059439;28;20228;-74
2023/06/10 05:39:44;;;;;;;4.60;4.20;;;;;;;19.90;80.97;97816.97;5059235;28;20228;-74
2023/06/10 05:42:11;;;;;;;5.10;4.60;;;;;;;19.77;77.57;97808.44;5058007;28;20292;-74
2023/06/10 05:44:37;;;;;;;5.27;4.83;;;;;;;19.60;79.58;97808.03;5056114;28;20278;-74
2023/06/10 05:47:04;;;;;;;5.33;4.73;;;;;;;19.60;80.11;97815.34;5056145;28;20232;-73
2023/06/10 05:49:30;;;;;;;4.77;4.37;;;;;;;19.75;80.71;97809.81;5055815;28;20315;-73
2023/06/10 05:51:58;;;;;;;4.93;4.53;;;;;;;19.71;83.07;97819.53;5055711;28;20210;-73
2023/06/10 05:54:24;;;;;;;5.93;4.83;;;;;;;19.68;77.90;97818.22;5055821;28;20572;-73
2023/06/10 05:56:51;;;;;;;5.40;5.00;;;;;;;19.67;78.08;97816.63;5055942;28;20291;-73
2023/06/10 05:59:17;;;;;;;4.87;4.43;;;;;;;19.63;79.75;97816.66;5055766;28;20210;-73
2023/06/10 06:01:43;;;;;;;5.70;4.53;;;;;;;19.73;78.59;97823.56;5055577;28;20209;-73
2023/06/10 06:04:10;;;;;;;5.30;4.50;;;;;;;19.77;80.63;97818.44;5055523;28;20692;-73
2023/06/10 06:06:39;;;;;;;5.00;4.70;;;;;;;19.98;76.70;97821.75;5055754;28;20260;-74
2023/06/10 06:09:05;;;;;;;4.80;4.40;;;;;;;19.91;78.57;97821.25;5055784;28;20244;-74
2023/06/10 06:11:32;;;;;;;4.60;4.20;;;;;;;20.00;79.55;97817.69;5055466;28;20692;-74
2023/06/10 06:13:58;;;;;;;4.93;4.53;;;;;;;20.07;79.34;97823.53;5055768;28;20197;-74
2023/06/10 06:16:25;;;;;;;5.20;4.80;;;;;;;20.10;80.19;97820.31;5055629;28;20355;-71
2023/06/10 06:18:51;;;;;;;5.27;4.80;;;;;;;20.13;77.14;97827.03;5055706;28;20248;-71
2023/06/10 06:21:17;;;;;;;5.20;4.70;;;;;;;20.20;77.75;97814.78;5055102;28;20664;-71
2023/06/10 06:23:44;;;;;;;5.27;4.87;;;;;;;20.36;77.58;97823.53;5054735;28;20225;-71
2023/06/10 06:26:10;;;;;;;5.23;4.73;;;;;;;20.45;78.28;97816.41;5055322;28;20227;-73
2023/06/10 06:28:36;;;;;;;5.30;4.90;;;;;;;20.47;77.10;97820.44;5055434;28;20209;-73
2023/06/10 06:31:03;;;;;;;5.60;5.20;;;;;;;20.50;79.17;97817.19;5055162;28;20213;-73
2023/06/10 06:33:30;;;;;;;5.23;4.83;;;;;;;20.55;78.58;97824.41;5055371;28;20205;-73
2023/06/10 06:35:56;;;;;;;5.10;4.70;;;;;;;20.54;77.48;97822.78;5054890;28;20727;-73
2023/06/10 06:38:23;;;;;;;5.53;5.07;;;;;;;20.74;76.22;97817.94;5054884;28;20672;-74
2023/06/10 06:40:49;;;;;;;5.27;4.83;;;;;;;20.71;75.44;97821.22;5054747;28;20568;-74
2023/06/10 06:43:17;;;;;;;5.67;4.87;;;;;;;20.64;76.08;97814.56;5054767;28;20566;-74
2023/06/10 06:45:43;;;;;;;4.93;4.53;;;;;;;20.68;77.71;97818.31;5055007;28;20221;-74
2023/06/10 06:48:09;;;;;;;5.23;4.80;;;;;;;20.89;78.21;97815.03;5055144;28;20216;-74
2023/06/10 06:50:36;;;;;;;5.30;4.90;;;;;;;20.90;76.48;97815.84;5055912;28;20205;-74
2023/06/10 06:53:02;;;;;;;5.50;4.97;;;;;;;20.87;75.52;97827.25;5055066;28;20220;-74
2023/06/10 06:55:29;;;;;;;6.03;5.10;;;;;;;20.95;75.16;97823.94;5053731;28;20295;-74
2023/06/10 06:57:55;;;;;;;5.40;4.90;;;;;;;21.18;75.31;97829.28;5054562;28;20209;-74
2023/06/10 07:00:22;;;;;;;4.53;4.23;;;;;;;21.05;73.97;97830.00;5054893;28;20213;-74
2023/06/10 07:02:49;;;;;;;5.03;4.53;;;;;;;20.98;74.25;97828.75;5054335;28;20576;-74
2023/06/10 07:05:15;;;;;;;4.93;4.53;;;;;;;21.07;73.26;97827.81;5054211;28;20569;-74
2023/06/10 07:07:42;;;;;;;4.70;4.40;;;;;;;21.18;71.23;97823.06;5054653;28;20326;-74
2023/06/10 07:10:08;;;;;;;5.10;4.65;;;;;;;21.33;70.10;97828.25;5054400;28;20579;-74
2023/06/10 07:12:35;;;;;;;5.33;4.77;;;;;;;21.35;70.71;97829.56;5053957;28;20672;-74
2023/06/10 07:15:01;;;;;;;5.23;4.83;;;;;;;21.26;71.97;97825.91;5053998;28;20690;-74
2023/06/10 07:17:27;;;;;;;5.03;4.72;;;;;;;21.35;68.93;97834.19;5053932;28;20225;-74
2023/06/10 07:19:57;;;;;;;6.20;4.72;;;;;;;21.32;70.19;97834.75;5053965;28;20211;-74
2023/06/10 07:22:23;;;;;;;5.60;5.03;;;;;;;21.65;69.94;97828.28;5054050;28;20216;-74
2023/06/10 07:24:50;;;;;;;5.03;4.63;;;;;;;21.57;69.54;97834.41;5053758;28;20600;-74
2023/06/10 07:27:17;;;;;;;5.00;4.53;;;;;;;21.50;69.67;97837.47;5053821;28;20311;-74
2023/06/10 07:29:43;;;;;;;4.85;4.55;;;;;;;21.56;69.32;97832.78;5054233;28;20308;-74
2023/06/10 07:32:09;;;;;;;4.88;4.38;;;;;;;21.86;70.02;97829.59;5054221;28;20209;-74
2023/06/10 07:34:36;;;;;;;5.10;4.70;;;;;;;21.88;68.57;97828.22;5054177;28;20305;-74
2023/06/10 07:37:02;;;;;;;4.60;4.30;;;;;;;21.93;70.12;97825.41;5054012;28;20229;-74
2023/06/10 07:39:28;;;;;;;5.40;5.00;;;;;;;21.90;67.45;97817.91;5053862;28;20208;-73
2023/06/10 07:41:56;;;;;;;4.95;4.55;;;;;;;21.82;69.49;97820.47;5053868;28;20207;-73
2023/06/10 07:44:23;;;;;;;4.65;4.35;;;;;;;22.02;68.76;97829.03;5053759;28;20267;-73
2023/06/10 07:46:49;;;;;;;4.63;3.83;;;;;;;22.19;68.37;97823.06;5053469;28;20708;-73
2023/06/10 07:49:16;;;;;;;4.95;4.45;;;;;;;22.53;64.39;97834.38;5053237;28;20212;-73
2023/06/10 07:51:42;;;;;;;4.43;4.13;;;;;;;22.52;64.31;97827.34;5053801;28;20212;-73
2023/06/10 07:54:09;;;;;;;4.20;3.80;;;;;;;22.42;64.96;97827.50;5053911;28;20212;-73
2023/06/10 07:56:35;;;;;;;4.43;4.13;;;;;;;22.64;63.82;97831.16;5053651;28;20236;-73
2023/06/10 07:59:01;;;;;;;4.05;3.75;;;;;;;22.58;62.27;97820.72;5053577;28;20210;-73
2023/06/10 08:01:29;;;;;;;4.13;3.83;;;;;;;22.63;63.11;97834.16;5053716;28;20213;-73
2023/06/10 08:03:56;;;;;;;4.20;3.90;;;;;;;22.68;62.20;97828.66;5053657;28;20571;-73
2023/06/10 08:06:22;;;;;;;4.10;3.80;;;;;;;22.70;61.93;97829.16;5052877;28;20590;-73
2023/06/10 08:08:49;;;;;;;4.38;4.07;;;;;;;22.89;62.97;97825.22;5053534;28;20205;-73
2023/06/10 08:11:15;;;;;;;4.85;4.47;;;;;;;22.81;63.78;97817.81;5053585;28;20208;-73
2023/06/10 08:13:41;;;;;;;4.32;4.03;;;;;;;22.93;62.62;97825.44;5053176;28;20208;-73
2023/06/10 08:16:08;;;;;;;5.40;4.45;;;;;;;23.02;63.23;97818.19;5054012;28;20225;-73
2023/06/10 08:18:34;;;;;;;4.78;4.20;;;;;;;23.11;63.59;97819.06;5053627;28;20583;-73
2023/06/10 08:21:01;;;;;;;4.47;4.18;;;;;;;23.07;63.80;97818.06;5053452;28;20223;-73
2023/06/10 08:23:27;;;;;;;4.60;4.30;;;;;;;22.87;62.58;97816.59;5053131;28;20217;-73
2023/06/10 08:25:53;;;;;;;4.72;4.32;;;;;;;23.11;63.44;97811.72;5053172;28;20229;-73
2023/06/10 08:28:20;;;;;;;4.90;4.47;;;;;;;23.28;63.34;97816.53;5053102;28;20213;-74
2023/06/10 08:30:46;;;;;;;5.00;4.70;;;;;;;23.18;62.68;97812.13;5053414;28;20202;-74
2023/06/10 08:33:12;;;;;;;4.90;4.50;;;;;;;22.66;62.98;97809.97;5053407;28;20213;-74
2023/06/10 08:35:39;;;;;;;5.00;4.60;;;;;;;22.93;64.70;97812.66;5052705;28;20240;-73
2023/06/10 08:38:05;;;;;;;5.13;4.68;;;;;;;23.52;61.92;97819.78;5052993;28;20209;-73
2023/06/10 08:40:33;;;;;;;4.82;4.32;;;;;;;23.57;61.72;97815.00;5053059;28;20207;-73
2023/06/10 08:43:06;;;;;;;4.70;4.40;;;;;;;23.29;62.90;97815.44;5052860;28;20216;-73
2023/06/10 08:45:36;;;;;;;5.82;4.40;;;;;;;23.43;61.25;97827.84;5052954;28;20229;-73
2023/06/10 08:48:07;;;;;;;4.90;4.50;;;;;;;23.46;61.39;97818.28;5053174;28;20619;-73
2023/06/10 08:50:37;;;;;;;6.00;4.75;;;;;;;23.67;62.82;97820.22;5053213;28;20185;-73
2023/06/10 08:53:06;;;;;;;4.88;4.47;;;;;;;23.74;61.17;97812.44;5053116;28;20205;-74
2023/06/10 08:55:36;;;;;;;4.80;4.40;;;;;;;23.91;61.78;97809.06;5053041;28;20244;-74
2023/06/10 08:58:03;;;;;;;4.90;4.60;;;;;;;23.97;59.19;97815.97;5052914;28;20256;-74
2023/06/10 09:00:31;;;;;;;5.60;5.10;;;;;;;24.14;59.67;97813.34;5052977;28;20213;-74
2023/06/10 09:02:59;;;;;;;8.57;4.50;;;;;;;24.14;59.95;97799.75;5053012;28;20205;-74
2023/06/10 09:05:28;;;;;;;5.70;5.20;;;;;;;23.89;61.65;97803.94;5052650;28;20316;-74
2023/06/10 09:07:56;;;;;;;4.82;4.43;;;;;;;23.95;62.85;97802.72;5053016;28;20213;-74
2023/06/10 09:10:22;;;;;;;5.15;4.75;;;;;;;24.06;61.75;97803.25;5051405;28;20212;-74
2023/06/10 09:12:49;;;;;;;5.20;4.70;;;;;;;24.25;58.80;97807.31;5052737;28;20201;-74
2023/06/10 09:15:17;;;;;;;4.55;4.25;;;;;;;24.27;56.46;97798.88;5052745;28;20212;-74
2023/06/10 09:17:44;;;;;;;4.97;4.57;;;;;;;24.57;56.16;97793.44;5053423;28;20211;-74
2023/06/10 09:20:12;;;;;;;4.82;4.25;;;;;;;24.54;56.66;97794.03;5056643;28;20296;-74
2023/06/10 09:22:38;;;;;;;4.55;4.25;;;;;;;24.87;56.01;97797.22;5056214;28;20205;-74
2023/06/10 09:25:07;;;;;;;4.95;4.57;;;;;;;24.89;54.23;97798.50;5056229;28;20213;-74
2023/06/10 09:27:33;;;;;;;6.78;4.13;;;;;;;24.83;54.24;97794.31;5056194;28;20221;-74
2023/06/10 09:29:59;;;;;;;4.55;4.07;;;;;;;24.82;55.11;97792.72;5056434;28;20214;-74
2023/06/10 09:32:26;;;;;;;5.75;4.63;;;;;;;25.16;53.40;97794.69;5056100;28;20212;-74
2023/06/10 09:34:53;;;;;;;5.15;4.38;;;;;;;25.38;52.05;97795.34;5056215;28;20202;-74
2023/06/10 09:37:25;;;;;;;4.40;4.10;;;;;;;25.54;52.57;97787.50;5056408;28;20233;-74
2023/06/10 09:40:08;;;;;;;4.70;4.38;;;;;;;25.45;52.75;97781.28;5056233;28;20209;-74
2023/06/10 09:42:36;;;;;;;4.50;4.10;;;;;;;25.26;52.94;97781.59;5056221;28;20227;-74
2023/06/10 09:45:05;;;;;;;5.25;4.40;;;;;;;25.25;52.98;97790.06;5056000;28;20236;-74
2023/06/10 09:47:31;;;;;;;4.60;4.20;;;;;;;25.04;54.87;97791.78;5056021;28;20232;-74
2023/06/10 09:49:57;;;;;;;4.60;4.25;;;;;;;24.88;54.66;97796.09;5056060;28;20208;-73
2023/06/10 09:52:25;;;;;;;4.57;4.18;;;;;;;24.74;53.63;97795.41;5056090;28;20206;-73
2023/06/10 09:54:59;;;;;;;4.28;3.88;;;;;;;24.60;55.86;97792.03;5056071;28;20201;-73
2023/06/10 09:57:26;;;;;;;4.63;4.22;;;;;;;24.57;53.99;97779.81;5055588;28;20719;-73
2023/06/10 09:59:56;;;;;;;4.47;4.18;;;;;;;24.85;55.31;97791.28;5055980;28;20219;-73
2023/06/10 10:02:22;;;;;;;4.75;4.43;;;;;;;24.57;53.36;97789.91;5055675;28;20697;-73
2023/06/10 10:04:49;;;;;;;4.85;4.35;;;;;;;24.41;54.96;97780.53;5055867;28;20227;-73
2023/06/10 10:07:15;;;;;;;3.90;3.70;;;;;;;24.54;54.20;97787.78;5055832;28;20229;-73
2023/06/10 10:09:42;;;;;;;4.15;3.85;;;;;;;24.48;57.31;97778.19;5055746;28;20208;-73
2023/06/10 10:12:15;;;;;;;4.43;4.03;;;;;;;24.58;54.72;97777.91;5055718;28;20209;-73
2023/06/10 10:14:47;;;;;;;4.03;3.72;;;;;;;24.90;50.78;97781.06;5055658;28;20204;-73
2023/06/10 10:17:16;;;;;;;4.22;3.78;;;;;;;24.65;52.07;97779.06;5055228;28;20573;-73
2023/06/10 10:19:54;;;;;;;4.32;3.92;;;;;;;24.14;52.14;97778.84;5055195;28;20205;-73
2023/06/10 10:22:30;;;;;;;3.95;3.65;;;;;;;24.29;53.24;97775.72;5055469;28;20193;-73
2023/06/10 10:24:58;;;;;;;4.20;3.47;;;;;;;24.54;54.64;97761.44;5054030;28;20579;-73
2023/06/10 10:27:31;;;;;;;4.30;4.00;;;;;;;24.63;53.51;97767.72;5055449;28;20233;-73
2023/06/10 10:29:59;;;;;;;4.60;4.30;;;;;;;24.70;55.77;97765.31;5055115;28;20224;-73
2023/06/10 10:32:35;;;;;;;4.13;3.83;;;;;;;24.46;54.12;97770.34;5055474;28;20209;-73
2023/06/10 10:35:09;;;;;;;4.85;4.45;;;;;;;24.28;53.71;97765.19;5055321;28;20182;-73
2023/06/10 10:37:36;;;;;;;4.68;4.28;;;;;;;24.23;57.60;97771.53;5055083;28;20229;-73
2023/06/10 10:40:04;;;;;;;4.30;4.00;;;;;;;24.07;55.55;97769.53;5055147;28;20201;-73
2023/06/10 10:42:31;;;;;;;4.53;3.88;;;;;;;24.14;55.66;97767.97;5055009;28;20205;-73
2023/06/10 10:44:59;;;;;;;4.35;4.03;;;;;;;24.38;55.59;97773.03;5053671;28;20217;-74
2023/06/10 10:47:29;;;;;;;4.18;3.88;;;;;;;24.81;52.97;97761.19;5054514;28;20229;-74
2023/06/10 10:49:58;;;;;;;4.60;4.20;;;;;;;25.33;51.96;97762.84;5054859;28;20194;-74
2023/06/10 10:52:25;;;;;;;4.28;3.88;;;;;;;25.70;52.58;97761.41;5054900;28;20569;-74
2023/06/10 10:54:54;;;;;;;4.75;3.90;;;;;;;25.96;49.59;97764.91;5054731;28;20213;-74
2023/06/10 10:57:25;;;;;;;4.65;4.15;;;;;;;26.03;48.52;97759.75;5054255;28;20712;-74
2023/06/10 11:00:01;;;;;;;4.20;3.80;;;;;;;26.10;48.65;97755.38;5054337;28;20217;-74
2023/06/10 11:02:39;;;;;;;4.35;4.05;;;;;;;26.37;48.39;97756.91;5054677;28;20193;-74
2023/06/10 11:05:07;;;;;;;5.00;4.15;;;;;;;25.82;47.25;97751.44;5054699;28;20206;-73
2023/06/10 11:07:36;;;;;;;4.20;3.90;;;;;;;26.19;49.15;97745.25;5054225;28;20225;-73
2023/06/10 11:10:13;;;;;;;4.60;3.95;;;;;;;26.48;49.09;97749.94;5054492;28;20288;-73
2023/06/10 11:12:54;;;;;;;4.47;4.18;;;;;;;26.38;47.42;97745.66;5054767;28;20222;-74
2023/06/10 11:15:24;;;;;;;4.47;4.07;;;;;;;26.60;47.01;97744.63;5054425;28;20212;-74
2023/06/10 11:18:10;;;;;;;4.03;3.55;;;;;;;26.84;48.63;97747.53;5054438;28;20588;-74
2023/06/10 11:20:55;;;;;;;4.45;4.15;;;;;;;26.64;44.89;97740.13;5054086;28;20675;-74
2023/06/10 11:23:27;;;;;;;4.53;4.07;;;;;;;26.87;47.50;97749.59;5054028;28;20305;-74
2023/06/10 11:26:16;;;;;;;3.78;3.53;;;;;;;26.60;45.94;97739.94;5054183;28;20233;-74
2023/06/10 11:29:02;;;;;;;4.25;3.85;;;;;;;26.82;45.34;97745.13;5054356;28;20209;-74
2023/06/10 11:31:33;;;;;;;4.40;4.07;;;;;;;26.82;44.86;97738.88;5054158;28;20193;-74
2023/06/10 11:34:03;;;;;;;4.20;3.90;;;;;;;26.89;44.79;97733.69;5054046;28;20200;-74